createdAt,value
2018-08-07T00:00:11.473Z,19.08
2018-08-07T00:01:11.470Z,19.08
2018-08-07T00:02:11.476Z,18.99
2018-08-07T00:03:11.456Z,19.04
2018-08-07T00:04:11.446Z,19.00
2018-08-07T00:05:11.428Z,19.00
2018-08-07T00:06:11.418Z,19.04
2018-08-07T00:07:11.417Z,19.00
2018-08-07T00:08:11.412Z,18.95
2018-08-07T00:09:11.400Z,18.99
2018-08-07T00:10:11.400Z,19.07
2018-08-07T00:11:11.388Z,19.00
2018-08-07T00:12:11.382Z,19.08
2018-08-07T00:13:11.376Z,19.08
2018-08-07T00:14:11.368Z,19.11
2018-08-07T00:15:11.355Z,18.95
2018-08-07T00:16:11.349Z,19.04
2018-08-07T00:17:11.344Z,18.91
2018-08-07T00:18:11.329Z,18.90
2018-08-07T00:19:11.325Z,18.98
2018-08-07T00:20:11.317Z,18.94
2018-08-07T00:21:11.313Z,18.91
2018-08-07T00:22:11.303Z,18.92
2018-08-07T00:23:11.299Z,18.92
2018-08-07T00:24:11.293Z,18.91
2018-08-07T00:25:11.283Z,18.90
2018-08-07T00:26:11.274Z,18.88
2018-08-07T00:27:11.268Z,18.99
2018-08-07T00:28:11.258Z,18.91
2018-08-07T00:29:11.248Z,18.94
2018-08-07T00:30:11.242Z,18.90
2018-08-07T00:31:11.234Z,18.99
2018-08-07T00:32:11.226Z,18.88
2018-08-07T00:33:11.220Z,18.90
2018-08-07T00:34:11.208Z,19.02
2018-08-07T00:35:11.207Z,19.04
2018-08-07T00:36:11.193Z,19.00
2018-08-07T00:37:11.185Z,18.99
2018-08-07T00:38:11.180Z,18.95
2018-08-07T00:39:11.176Z,19.02
2018-08-07T00:40:11.165Z,19.00
2018-08-07T00:41:11.154Z,19.00
2018-08-07T00:42:11.150Z,19.00
2018-08-07T00:43:11.148Z,19.10
2018-08-07T00:44:11.133Z,19.13
2018-08-07T00:45:11.126Z,19.13
2018-08-07T00:46:11.116Z,19.08
2018-08-07T00:47:11.114Z,19.08
2018-08-07T00:48:11.103Z,19.07
2018-08-07T00:49:11.095Z,19.07
2018-08-07T00:50:11.083Z,19.10
2018-08-07T00:51:11.087Z,19.06
2018-08-07T00:52:11.077Z,19.13
2018-08-07T00:53:11.071Z,19.13
2018-08-07T00:54:11.053Z,19.04
2018-08-07T00:55:11.051Z,19.08
2018-08-07T00:56:11.043Z,19.00
2018-08-07T00:57:11.035Z,19.14
2018-08-07T00:58:11.027Z,19.13
2018-08-07T00:59:11.021Z,19.11
2018-08-07T01:00:11.013Z,19.16
2018-08-07T01:01:11.005Z,19.02
2018-08-07T01:02:11.004Z,19.10
2018-08-07T01:03:10.990Z,19.11
2018-08-07T01:04:10.987Z,19.13
2018-08-07T01:05:10.983Z,19.08
2018-08-07T01:06:10.964Z,19.11
2018-08-07T01:07:10.960Z,19.00
2018-08-07T01:08:10.950Z,19.18
2018-08-07T01:09:10.944Z,19.14
2018-08-07T01:10:10.937Z,19.04
2018-08-07T01:11:10.927Z,19.04
2018-08-07T01:12:10.921Z,18.99
2018-08-07T01:13:10.911Z,19.00
2018-08-07T01:14:10.904Z,18.98
2018-08-07T01:15:10.898Z,18.98
2018-08-07T01:16:10.894Z,18.99
2018-08-07T01:17:10.876Z,18.92
2018-08-07T01:18:10.878Z,18.98
2018-08-07T01:19:10.868Z,18.95
2018-08-07T01:20:10.855Z,18.94
2018-08-07T01:21:10.848Z,18.94
2018-08-07T01:22:10.842Z,18.90
2018-08-07T01:23:10.842Z,18.99
2018-08-07T01:24:10.833Z,18.88
2018-08-07T01:25:10.822Z,18.91
2018-08-07T01:26:10.814Z,18.95
2018-08-07T01:27:10.817Z,18.92
2018-08-07T01:28:10.800Z,18.99
2018-08-07T01:29:10.791Z,18.88
2018-08-07T01:30:10.787Z,18.87
2018-08-07T01:31:10.777Z,18.98
2018-08-07T01:32:10.776Z,18.92
2018-08-07T01:33:10.765Z,18.95
2018-08-07T01:34:10.755Z,18.91
2018-08-07T01:35:10.747Z,19.04
2018-08-07T01:36:10.742Z,18.95
2018-08-07T01:37:10.730Z,19.02
2018-08-07T01:38:10.717Z,19.07
2018-08-07T01:39:10.710Z,19.02
2018-08-07T01:40:10.705Z,18.99
2018-08-07T01:41:10.699Z,19.06
2018-08-07T01:42:10.691Z,19.08
2018-08-07T01:43:10.687Z,19.07
2018-08-07T01:44:10.679Z,19.07
2018-08-07T01:45:10.672Z,19.10
2018-08-07T01:46:10.660Z,19.13
2018-08-07T01:47:10.652Z,19.14
2018-08-07T01:48:10.648Z,19.04
2018-08-07T01:49:10.635Z,19.11
2018-08-07T01:50:10.636Z,19.13
2018-08-07T01:51:10.623Z,19.13
2018-08-07T01:52:10.614Z,19.16
2018-08-07T01:53:10.607Z,19.08
2018-08-07T01:54:10.599Z,19.06
2018-08-07T01:55:10.587Z,19.04
2018-08-07T01:56:10.583Z,18.99
2018-08-07T01:57:10.582Z,18.91
2018-08-07T01:58:10.569Z,18.88
2018-08-07T01:59:10.559Z,18.90
2018-08-07T02:00:10.551Z,18.76
2018-08-07T02:01:10.546Z,18.81
2018-08-07T02:02:10.538Z,18.75
2018-08-07T02:03:10.530Z,18.80
2018-08-07T02:04:10.528Z,18.73
2018-08-07T02:05:10.512Z,18.76
2018-08-07T02:06:10.505Z,18.75
2018-08-07T02:07:10.498Z,18.70
2018-08-07T02:08:10.492Z,18.67
2018-08-07T02:09:10.481Z,18.67
2018-08-07T02:10:10.475Z,18.65
2018-08-07T02:11:10.462Z,18.65
2018-08-07T02:12:10.461Z,18.60
2018-08-07T02:13:10.447Z,18.72
2018-08-07T02:14:10.448Z,18.78
2018-08-07T02:15:10.436Z,18.65
2018-08-07T02:16:10.428Z,18.69
2018-08-07T02:17:10.419Z,18.69
2018-08-07T02:18:10.414Z,18.70
2018-08-07T02:19:10.405Z,18.73
2018-08-07T02:20:10.405Z,18.65
2018-08-07T02:21:10.387Z,18.66
2018-08-07T02:22:10.377Z,18.73
2018-08-07T02:23:10.373Z,18.72
2018-08-07T02:24:10.373Z,18.67
2018-08-07T02:25:10.356Z,18.70
2018-08-07T02:26:10.350Z,18.62
2018-08-07T02:27:10.341Z,18.76
2018-08-07T02:28:10.340Z,18.72
2018-08-07T02:29:10.332Z,18.70
2018-08-07T02:30:10.319Z,18.70
2018-08-07T02:31:10.313Z,18.78
2018-08-07T02:32:10.309Z,18.69
2018-08-07T02:33:10.288Z,18.75
2018-08-07T02:34:10.286Z,18.82
2018-08-07T02:35:10.306Z,18.84
2018-08-07T02:36:10.272Z,18.81
2018-08-07T02:37:10.265Z,18.82
2018-08-07T02:38:10.255Z,18.78
2018-08-07T02:39:10.250Z,18.90
2018-08-07T02:40:10.237Z,18.87
2018-08-07T02:41:10.229Z,18.85
2018-08-07T02:42:10.220Z,18.87
2018-08-07T02:43:10.214Z,18.88
2018-08-07T02:44:10.212Z,18.90
2018-08-07T02:45:10.200Z,18.91
2018-08-07T02:46:10.200Z,18.91
2018-08-07T02:47:10.184Z,18.87
2018-08-07T02:48:10.178Z,18.87
2018-08-07T02:49:10.164Z,18.84
2018-08-07T02:50:10.159Z,18.76
2018-08-07T02:51:10.155Z,18.94
2018-08-07T02:52:10.145Z,18.88
2018-08-07T02:53:10.139Z,18.84
2018-08-07T02:54:10.134Z,18.80
2018-08-07T02:55:10.123Z,18.82
2018-08-07T02:56:10.115Z,18.84
2018-08-07T02:57:10.106Z,18.85
2018-08-07T02:58:10.098Z,18.81
2018-08-07T02:59:10.086Z,18.75
2018-08-07T03:00:10.079Z,18.81
2018-08-07T03:01:10.076Z,18.80
2018-08-07T03:02:10.070Z,18.75
2018-08-07T03:03:10.060Z,18.78
2018-08-07T03:04:10.056Z,18.65
2018-08-07T03:05:10.049Z,18.65
2018-08-07T03:06:10.035Z,18.62
2018-08-07T03:07:10.029Z,18.60
2018-08-07T03:08:10.017Z,18.66
2018-08-07T03:09:10.009Z,18.55
2018-08-07T03:10:10.001Z,18.51
2018-08-07T03:11:09.995Z,18.55
2018-08-07T03:12:09.992Z,18.60
2018-08-07T03:13:09.982Z,18.52
2018-08-07T03:14:09.969Z,18.52
2018-08-07T03:15:09.966Z,18.60
2018-08-07T03:16:09.962Z,18.58
2018-08-07T03:17:09.957Z,18.60
2018-08-07T03:18:09.942Z,18.62
2018-08-07T03:19:09.940Z,18.63
2018-08-07T03:20:09.930Z,18.66
2018-08-07T03:21:09.920Z,18.73
2018-08-07T03:22:09.909Z,18.72
2018-08-07T03:23:09.902Z,18.69
2018-08-07T03:24:09.909Z,18.72
2018-08-07T03:25:09.884Z,18.67
2018-08-07T03:26:09.879Z,18.73
2018-08-07T03:27:09.876Z,18.73
2018-08-07T03:28:09.866Z,18.69
2018-08-07T03:29:09.855Z,18.70
2018-08-07T03:30:09.848Z,18.80
2018-08-07T03:31:09.837Z,18.75
2018-08-07T03:32:09.835Z,18.72
2018-08-07T03:33:09.830Z,18.69
2018-08-07T03:34:09.820Z,18.75
2018-08-07T03:35:09.809Z,18.73
2018-08-07T03:36:09.797Z,18.72
2018-08-07T03:37:09.797Z,18.72
2018-08-07T03:38:09.776Z,18.78
2018-08-07T03:39:09.772Z,18.84
2018-08-07T03:40:09.769Z,18.85
2018-08-07T03:41:09.757Z,18.91
2018-08-07T03:42:09.752Z,18.92
2018-08-07T03:43:09.742Z,18.88
2018-08-07T03:44:09.745Z,18.94
2018-08-07T03:45:09.726Z,18.87
2018-08-07T03:46:09.720Z,18.92
2018-08-07T03:47:09.717Z,18.92
2018-08-07T03:48:09.704Z,19.00
2018-08-07T03:49:09.719Z,19.00
2018-08-07T03:50:09.685Z,19.06
2018-08-07T03:51:09.681Z,19.00
2018-08-07T03:52:09.669Z,19.08
2018-08-07T03:53:09.766Z,19.07
2018-08-07T03:54:09.663Z,19.10
2018-08-07T03:55:09.644Z,19.13
2018-08-07T03:56:09.642Z,19.14
2018-08-07T03:57:09.634Z,19.22
2018-08-07T03:58:09.623Z,19.23
2018-08-07T03:59:09.662Z,19.23
2018-08-07T04:00:09.608Z,19.18
2018-08-07T04:01:09.601Z,19.21
2018-08-07T04:02:09.590Z,19.21
2018-08-07T04:03:09.583Z,19.18
2018-08-07T04:04:09.579Z,19.29
2018-08-07T04:05:09.571Z,19.26
2018-08-07T04:06:09.561Z,19.25
2018-08-07T04:07:09.553Z,19.29
2018-08-07T04:08:09.547Z,19.23
2018-08-07T04:09:09.541Z,19.26
2018-08-07T04:10:09.532Z,19.29
2018-08-07T04:11:09.526Z,19.32
2018-08-07T04:12:09.515Z,19.33
2018-08-07T04:13:09.508Z,19.32
2018-08-07T04:14:09.506Z,19.26
2018-08-07T04:15:09.489Z,19.25
2018-08-07T04:16:09.482Z,19.26
2018-08-07T04:17:09.478Z,19.28
2018-08-07T04:18:09.467Z,19.28
2018-08-07T04:19:09.457Z,19.28
2018-08-07T04:20:09.453Z,19.26
2018-08-07T04:21:09.443Z,19.19
2018-08-07T04:22:09.436Z,19.21
2018-08-07T04:23:09.428Z,19.19
2018-08-07T04:24:09.427Z,19.21
2018-08-07T04:25:09.411Z,19.21
2018-08-07T04:26:09.516Z,19.22
2018-08-07T04:27:09.394Z,19.19
2018-08-07T04:28:09.391Z,19.22
2018-08-07T04:29:09.378Z,19.19
2018-08-07T04:30:09.376Z,19.19
2018-08-07T04:31:09.367Z,19.22
2018-08-07T04:32:09.355Z,19.13
2018-08-07T04:33:09.348Z,19.19
2018-08-07T04:34:09.340Z,19.23
2018-08-07T04:35:09.330Z,19.18
2018-08-07T04:36:09.328Z,19.25
2018-08-07T04:37:09.316Z,19.23
2018-08-07T04:38:09.304Z,19.21
2018-08-07T04:39:09.300Z,19.28
2018-08-07T04:40:09.294Z,19.25
2018-08-07T04:41:09.283Z,19.18
2018-08-07T04:42:09.279Z,19.26
2018-08-07T04:43:09.267Z,19.19
2018-08-07T04:44:09.261Z,19.19
2018-08-07T04:45:09.259Z,19.18
2018-08-07T04:46:09.245Z,19.16
2018-08-07T04:47:09.238Z,19.19
2018-08-07T04:48:09.227Z,19.22
2018-08-07T04:49:09.220Z,19.19
2018-08-07T04:50:09.214Z,19.13
2018-08-07T04:51:09.207Z,19.31
2018-08-07T04:52:09.196Z,19.25
2018-08-07T04:53:09.192Z,19.26
2018-08-07T04:54:09.179Z,19.29
2018-08-07T04:55:09.176Z,19.23
2018-08-07T04:56:09.167Z,19.23
2018-08-07T04:57:09.155Z,19.31
2018-08-07T04:58:09.264Z,19.36
2018-08-07T04:59:09.144Z,19.31
2018-08-07T05:00:09.133Z,19.28
2018-08-07T05:01:09.124Z,19.36
2018-08-07T05:02:09.118Z,19.33
2018-08-07T05:03:09.109Z,19.36
2018-08-07T05:04:09.103Z,19.41
2018-08-07T05:05:09.090Z,19.41
2018-08-07T05:06:09.086Z,19.37
2018-08-07T05:07:09.078Z,19.48
2018-08-07T05:08:09.072Z,19.39
2018-08-07T05:09:09.067Z,19.40
2018-08-07T05:10:09.050Z,19.48
2018-08-07T05:11:09.048Z,19.44
2018-08-07T05:12:09.036Z,19.56
2018-08-07T05:13:09.033Z,19.51
2018-08-07T05:14:09.052Z,19.46
2018-08-07T05:15:09.018Z,19.46
2018-08-07T05:16:09.009Z,19.48
2018-08-07T05:17:08.996Z,19.56
2018-08-07T05:18:08.992Z,19.56
2018-08-07T05:19:08.981Z,19.56
2018-08-07T05:20:08.981Z,19.62
2018-08-07T05:21:08.972Z,19.63
2018-08-07T05:22:08.960Z,19.61
2018-08-07T05:23:08.954Z,19.66
2018-08-07T05:24:08.944Z,19.68
2018-08-07T05:25:08.935Z,19.66
2018-08-07T05:26:08.928Z,19.78
2018-08-07T05:27:08.923Z,19.77
2018-08-07T05:28:08.913Z,19.71
2018-08-07T05:29:08.910Z,19.69
2018-08-07T05:30:08.919Z,19.81
2018-08-07T05:31:08.891Z,19.78
2018-08-07T05:32:08.883Z,19.73
2018-08-07T05:33:08.877Z,19.86
2018-08-07T05:34:08.866Z,19.87
2018-08-07T05:35:08.860Z,19.88
2018-08-07T05:36:08.852Z,19.92
2018-08-07T05:37:08.849Z,19.86
2018-08-07T05:38:08.839Z,19.91
2018-08-07T05:39:08.824Z,19.94
2018-08-07T05:40:08.823Z,20.05
2018-08-07T05:41:08.815Z,19.98
2018-08-07T05:42:08.803Z,19.96
2018-08-07T05:43:08.799Z,20.02
2018-08-07T05:44:08.793Z,20.08
2018-08-07T05:45:08.786Z,20.01
2018-08-07T05:46:08.779Z,20.05
2018-08-07T05:47:08.766Z,20.10
2018-08-07T05:48:08.762Z,20.08
2018-08-07T05:49:08.754Z,20.10
2018-08-07T05:50:08.890Z,20.16
2018-08-07T05:51:09.160Z,20.10
2018-08-07T05:52:08.737Z,20.14
2018-08-07T05:53:08.721Z,20.16
2018-08-07T05:54:08.711Z,20.13
2018-08-07T05:55:08.748Z,20.16
2018-08-07T05:56:08.703Z,20.16
2018-08-07T05:57:08.698Z,20.13
2018-08-07T05:58:08.686Z,20.14
2018-08-07T05:59:08.679Z,20.13
2018-08-07T06:00:08.674Z,20.16
2018-08-07T06:01:08.661Z,20.18
2018-08-07T06:02:08.657Z,20.08
2018-08-07T06:03:08.649Z,20.11
2018-08-07T06:04:08.642Z,20.06
2018-08-07T06:05:08.631Z,20.20
2018-08-07T06:06:08.629Z,20.14
2018-08-07T06:07:08.617Z,20.18
2018-08-07T06:08:08.609Z,20.26
2018-08-07T06:09:08.602Z,20.23
2018-08-07T06:10:08.600Z,20.20
2018-08-07T06:11:08.587Z,20.18
2018-08-07T06:12:08.576Z,20.21
2018-08-07T06:13:08.571Z,20.26
2018-08-07T06:14:08.567Z,20.28
2018-08-07T06:15:08.559Z,20.31
2018-08-07T06:16:08.552Z,20.28
2018-08-07T06:17:08.544Z,20.31
2018-08-07T06:18:08.532Z,20.33
2018-08-07T06:19:08.570Z,20.31
2018-08-07T06:20:08.531Z,20.28
2018-08-07T06:21:08.516Z,20.32
2018-08-07T06:22:08.506Z,20.36
2018-08-07T06:23:08.494Z,20.41
2018-08-07T06:24:08.492Z,20.38
2018-08-07T06:25:08.484Z,20.32
2018-08-07T06:26:08.477Z,20.31
2018-08-07T06:27:08.469Z,20.41
2018-08-07T06:28:08.462Z,20.33
2018-08-07T06:29:08.454Z,20.32
2018-08-07T06:30:08.448Z,20.39
2018-08-07T06:31:08.444Z,20.33
2018-08-07T06:32:08.430Z,20.31
2018-08-07T06:33:08.426Z,20.33
2018-08-07T06:34:08.419Z,20.39
2018-08-07T06:35:08.414Z,20.32
2018-08-07T06:36:08.409Z,20.32
2018-08-07T06:37:08.395Z,20.41
2018-08-07T06:38:08.389Z,20.32
2018-08-07T06:39:08.390Z,20.36
2018-08-07T06:40:08.374Z,20.32
2018-08-07T06:41:08.368Z,20.35
2018-08-07T06:42:08.362Z,20.38
2018-08-07T06:43:08.355Z,20.39
2018-08-07T06:44:08.352Z,20.33
2018-08-07T06:45:08.343Z,20.38
2018-08-07T06:46:08.329Z,20.39
2018-08-07T06:47:08.320Z,20.41
2018-08-07T06:48:08.337Z,20.41
2018-08-07T06:49:08.305Z,20.43
2018-08-07T06:50:08.351Z,20.36
2018-08-07T06:51:08.296Z,20.52
2018-08-07T06:52:08.289Z,20.55
2018-08-07T06:53:08.287Z,20.51
2018-08-07T06:54:08.266Z,20.61
2018-08-07T06:55:08.263Z,20.55
2018-08-07T06:56:08.253Z,20.58
2018-08-07T06:57:08.338Z,20.58
2018-08-07T06:58:08.244Z,20.67
2018-08-07T06:59:08.234Z,20.59
2018-08-07T07:00:08.228Z,20.69
2018-08-07T07:01:08.222Z,20.70
2018-08-07T07:02:08.214Z,20.69
2018-08-07T07:03:08.204Z,20.74
2018-08-07T07:04:08.201Z,20.76
2018-08-07T07:05:08.191Z,20.72
2018-08-07T07:06:08.186Z,20.84
2018-08-07T07:07:08.184Z,20.87
2018-08-07T07:08:08.174Z,20.80
2018-08-07T07:09:08.163Z,20.87
2018-08-07T07:10:08.153Z,20.85
2018-08-07T07:11:08.147Z,20.87
2018-08-07T07:12:08.140Z,20.87
2018-08-07T07:13:08.132Z,20.99
2018-08-07T07:14:08.125Z,20.99
2018-08-07T07:15:08.116Z,20.98
2018-08-07T07:16:08.110Z,20.98
2018-08-07T07:17:08.104Z,21.09
2018-08-07T07:18:08.094Z,21.04
2018-08-07T07:19:08.092Z,21.12
2018-08-07T07:20:08.084Z,21.16
2018-08-07T07:21:08.077Z,21.14
2018-08-07T07:22:08.063Z,21.21
2018-08-07T07:23:08.060Z,21.21
2018-08-07T07:24:08.053Z,21.24
2018-08-07T07:25:08.047Z,21.31
2018-08-07T07:26:08.041Z,21.32
2018-08-07T07:27:08.033Z,21.43
2018-08-07T07:28:08.027Z,21.52
2018-08-07T07:29:08.021Z,21.54
2018-08-07T07:30:08.014Z,21.62
2018-08-07T07:31:08.010Z,21.69
2018-08-07T07:32:08.001Z,21.68
2018-08-07T07:33:07.993Z,21.84
2018-08-07T07:34:07.991Z,21.94
2018-08-07T07:35:07.975Z,21.83
2018-08-07T07:36:07.971Z,21.90
2018-08-07T07:37:07.967Z,22.02
2018-08-07T07:38:07.956Z,22.14
2018-08-07T07:39:07.950Z,22.12
2018-08-07T07:40:07.944Z,22.07
2018-08-07T07:41:07.936Z,22.18
2018-08-07T07:42:07.928Z,22.20
2018-08-07T07:43:07.924Z,22.24
2018-08-07T07:44:07.924Z,22.24
2018-08-07T07:45:07.912Z,22.36
2018-08-07T07:46:07.908Z,22.31
2018-08-07T07:47:07.957Z,22.40
2018-08-07T07:48:07.889Z,22.40
2018-08-07T07:49:07.885Z,22.39
2018-08-07T07:50:07.873Z,22.51
2018-08-07T07:51:07.869Z,22.55
2018-08-07T07:52:07.861Z,22.64
2018-08-07T07:53:07.880Z,22.72
2018-08-07T07:54:07.913Z,22.70
2018-08-07T07:55:07.844Z,22.80
2018-08-07T07:56:07.840Z,22.86
2018-08-07T07:57:07.832Z,22.94
2018-08-07T07:58:07.824Z,23.00
2018-08-07T07:59:07.820Z,23.15
2018-08-07T08:00:07.812Z,22.95
2018-08-07T08:01:07.803Z,23.01
2018-08-07T08:02:07.803Z,22.97
2018-08-07T08:03:07.795Z,22.88
2018-08-07T08:04:07.787Z,22.79
2018-08-07T08:05:07.809Z,22.88
2018-08-07T08:06:07.856Z,22.85
2018-08-07T08:07:07.775Z,22.68
2018-08-07T08:08:07.772Z,22.73
2018-08-07T08:09:07.757Z,22.65
2018-08-07T08:10:07.747Z,22.61
2018-08-07T08:11:07.755Z,22.67
2018-08-07T08:12:07.737Z,22.68
2018-08-07T08:13:07.731Z,22.62
2018-08-07T08:14:07.719Z,22.70
2018-08-07T08:15:07.719Z,22.70
2018-08-07T08:16:07.719Z,22.65
2018-08-07T08:17:07.710Z,22.79
2018-08-07T08:18:07.692Z,22.77
2018-08-07T08:19:07.690Z,22.75
2018-08-07T08:20:07.688Z,22.68
2018-08-07T08:21:07.676Z,22.65
2018-08-07T08:22:07.674Z,22.70
2018-08-07T08:23:07.662Z,22.77
2018-08-07T08:24:07.665Z,22.72
2018-08-07T08:25:07.662Z,22.80
2018-08-07T08:26:07.653Z,22.91
2018-08-07T08:27:07.646Z,22.83
2018-08-07T08:28:07.647Z,22.90
2018-08-07T08:29:07.661Z,22.95
2018-08-07T08:30:07.673Z,22.94
2018-08-07T08:31:07.619Z,22.98
2018-08-07T08:32:07.613Z,22.97
2018-08-07T08:33:07.608Z,22.97
2018-08-07T08:34:07.608Z,22.97
2018-08-07T08:35:07.694Z,22.92
2018-08-07T08:36:07.593Z,22.83
2018-08-07T08:37:07.582Z,22.80
2018-08-07T08:38:07.573Z,22.67
2018-08-07T08:39:07.569Z,22.76
2018-08-07T08:40:07.564Z,22.72
2018-08-07T08:41:07.561Z,22.58
2018-08-07T08:42:07.553Z,22.58
2018-08-07T08:43:07.550Z,22.73
2018-08-07T08:44:07.544Z,22.75
2018-08-07T08:45:07.536Z,22.64
2018-08-07T08:46:07.530Z,22.65
2018-08-07T08:47:07.525Z,22.54
2018-08-07T08:48:07.563Z,22.62
2018-08-07T08:49:07.515Z,22.68
2018-08-07T08:50:07.525Z,22.70
2018-08-07T08:51:07.495Z,22.73
2018-08-07T08:52:07.492Z,22.80
2018-08-07T08:53:07.486Z,22.92
2018-08-07T08:54:07.504Z,22.90
2018-08-07T08:55:07.476Z,22.95
2018-08-07T08:56:07.474Z,23.00
2018-08-07T08:57:07.461Z,23.07
2018-08-07T08:58:07.459Z,23.13
2018-08-07T08:59:07.451Z,23.17
2018-08-07T09:00:07.440Z,23.13
2018-08-07T09:01:07.436Z,23.16
2018-08-07T09:02:07.430Z,23.12
2018-08-07T09:03:07.444Z,23.22
2018-08-07T09:04:07.430Z,23.31
2018-08-07T09:05:07.411Z,23.20
2018-08-07T09:06:07.403Z,23.31
2018-08-07T09:07:07.399Z,23.23
2018-08-07T09:08:07.393Z,23.32
2018-08-07T09:09:07.390Z,23.38
2018-08-07T09:10:07.383Z,23.57
2018-08-07T09:11:07.376Z,23.51
2018-08-07T09:12:07.371Z,23.55
2018-08-07T09:13:07.363Z,23.65
2018-08-07T09:14:07.359Z,23.68
2018-08-07T09:15:07.354Z,23.83
2018-08-07T09:16:07.351Z,23.85
2018-08-07T09:17:07.341Z,23.90
2018-08-07T09:18:07.336Z,23.88
2018-08-07T09:19:07.331Z,24.03
2018-08-07T09:20:07.323Z,23.95
2018-08-07T09:21:07.322Z,24.02
2018-08-07T09:22:07.310Z,24.05
2018-08-07T09:23:07.310Z,24.09
2018-08-07T09:24:07.302Z,24.10
2018-08-07T09:25:07.296Z,24.10
2018-08-07T09:26:07.360Z,24.24
2018-08-07T09:27:07.286Z,24.47
2018-08-07T09:28:07.280Z,24.67
2018-08-07T09:29:07.271Z,24.73
2018-08-07T09:30:07.270Z,24.64
2018-08-07T09:31:07.266Z,24.64
2018-08-07T09:32:07.258Z,24.67
2018-08-07T09:33:07.244Z,24.68
2018-08-07T09:34:07.244Z,24.69
2018-08-07T09:35:07.239Z,24.81
2018-08-07T09:36:07.238Z,24.87
2018-08-07T09:37:07.228Z,24.87
2018-08-07T09:38:07.224Z,24.87
2018-08-07T09:39:07.220Z,24.81
2018-08-07T09:40:07.220Z,24.84
2018-08-07T09:41:07.224Z,24.84
2018-08-07T09:42:07.200Z,24.84
2018-08-07T09:43:07.196Z,24.81
2018-08-07T09:44:07.194Z,24.77
2018-08-07T09:45:07.183Z,24.81
2018-08-07T09:46:07.181Z,24.73
2018-08-07T09:47:07.173Z,24.68
2018-08-07T09:48:07.172Z,24.80
2018-08-07T09:49:07.164Z,24.84
2018-08-07T09:50:07.160Z,24.91
2018-08-07T09:51:07.154Z,24.87
2018-08-07T09:52:07.152Z,24.90
2018-08-07T09:53:07.143Z,24.96
2018-08-07T09:54:07.141Z,24.90
2018-08-07T09:55:07.129Z,24.87
2018-08-07T09:56:07.128Z,24.81
2018-08-07T09:57:07.120Z,24.88
2018-08-07T09:58:07.128Z,24.91
2018-08-07T09:59:07.114Z,24.85
2018-08-07T10:00:07.108Z,24.77
2018-08-07T10:01:07.105Z,24.84
2018-08-07T10:02:07.096Z,24.69
2018-08-07T10:03:07.094Z,24.76
2018-08-07T10:04:07.089Z,24.67
2018-08-07T10:05:07.122Z,24.57
2018-08-07T10:06:07.077Z,24.53
2018-08-07T10:07:07.068Z,24.60
2018-08-07T10:08:07.067Z,24.55
2018-08-07T10:09:07.068Z,24.68
2018-08-07T10:10:07.052Z,24.61
2018-08-07T10:11:07.052Z,24.45
2018-08-07T10:12:07.044Z,24.45
2018-08-07T10:13:07.038Z,24.47
2018-08-07T10:14:07.033Z,24.47
2018-08-07T10:15:07.025Z,24.50
2018-08-07T10:16:07.025Z,24.52
2018-08-07T10:17:07.025Z,24.47
2018-08-07T10:18:07.011Z,24.42
2018-08-07T10:19:07.010Z,24.32
2018-08-07T10:20:07.004Z,24.35
2018-08-07T10:21:07.003Z,24.22
2018-08-07T10:22:06.992Z,24.34
2018-08-07T10:23:06.987Z,24.28
2018-08-07T10:24:06.977Z,24.25
2018-08-07T10:25:06.967Z,24.24
2018-08-07T10:26:06.973Z,24.34
2018-08-07T10:27:06.959Z,24.22
2018-08-07T10:28:06.959Z,24.27
2018-08-07T10:29:06.955Z,24.34
2018-08-07T10:30:06.949Z,24.27
2018-08-07T10:31:06.945Z,24.22
2018-08-07T10:32:06.937Z,24.25
2018-08-07T10:33:06.934Z,24.21
2018-08-07T10:34:06.924Z,24.16
2018-08-07T10:35:06.998Z,24.18
2018-08-07T10:36:06.920Z,24.18
2018-08-07T10:37:06.910Z,24.16
2018-08-07T10:38:06.901Z,24.13
2018-08-07T10:39:06.900Z,24.22
2018-08-07T10:40:06.899Z,24.10
2018-08-07T10:41:07.011Z,24.16
2018-08-07T10:42:06.883Z,24.16
2018-08-07T10:43:06.992Z,24.03
2018-08-07T10:44:06.877Z,24.12
2018-08-07T10:45:06.869Z,24.16
2018-08-07T10:46:06.860Z,24.16
2018-08-07T10:47:06.863Z,24.18
2018-08-07T10:48:06.851Z,24.20
2018-08-07T10:49:06.846Z,24.20
2018-08-07T10:50:06.839Z,24.24
2018-08-07T10:51:06.833Z,24.16
2018-08-07T10:52:06.877Z,24.20
2018-08-07T10:53:06.823Z,24.30
2018-08-07T10:54:06.817Z,24.31
2018-08-07T10:55:06.814Z,24.34
2018-08-07T10:56:06.814Z,24.25
2018-08-07T10:57:06.808Z,24.15
2018-08-07T10:58:06.796Z,24.21
2018-08-07T10:59:06.792Z,24.15
2018-08-07T11:00:06.786Z,24.16
2018-08-07T11:01:06.782Z,24.16
2018-08-07T11:02:06.778Z,24.18
2018-08-07T11:03:06.774Z,24.16
2018-08-07T11:04:06.763Z,24.15
2018-08-07T11:05:06.758Z,24.12
2018-08-07T11:06:06.761Z,24.21
2018-08-07T11:07:06.749Z,24.16
2018-08-07T11:08:06.743Z,24.22
2018-08-07T11:09:06.781Z,24.22
2018-08-07T11:10:06.731Z,24.37
2018-08-07T11:11:06.726Z,24.34
2018-08-07T11:12:06.717Z,24.42
2018-08-07T11:13:06.716Z,24.39
2018-08-07T11:14:06.708Z,24.46
2018-08-07T11:15:06.720Z,24.50
2018-08-07T11:16:06.698Z,24.61
2018-08-07T11:17:06.689Z,24.52
2018-08-07T11:18:06.687Z,24.60
2018-08-07T11:19:06.681Z,24.57
2018-08-07T11:20:06.680Z,24.61
2018-08-07T11:21:06.672Z,24.64
2018-08-07T11:22:06.672Z,24.53
2018-08-07T11:23:06.661Z,24.58
2018-08-07T11:24:06.659Z,24.71
2018-08-07T11:25:06.654Z,24.71
2018-08-07T11:26:06.645Z,24.69
2018-08-07T11:27:06.644Z,24.69
2018-08-07T11:28:06.647Z,24.67
2018-08-07T11:29:06.636Z,24.84
2018-08-07T11:30:06.633Z,24.81
2018-08-07T11:31:06.619Z,24.87
2018-08-07T11:32:06.619Z,24.85
2018-08-07T11:33:06.607Z,24.93
2018-08-07T11:34:06.603Z,24.95
2018-08-07T11:35:06.603Z,24.93
2018-08-07T11:36:06.598Z,24.88
2018-08-07T11:37:06.602Z,24.91
2018-08-07T11:38:06.585Z,24.83
2018-08-07T11:39:06.584Z,24.85
2018-08-07T11:40:06.574Z,24.85
2018-08-07T11:41:06.570Z,24.87
2018-08-07T11:42:06.566Z,24.81
2018-08-07T11:43:06.560Z,24.87
2018-08-07T11:44:06.556Z,24.90
2018-08-07T11:45:06.550Z,24.95
2018-08-07T11:46:06.543Z,24.93
2018-08-07T11:47:06.539Z,24.95
2018-08-07T11:48:06.546Z,24.95
2018-08-07T11:49:06.530Z,25.00
2018-08-07T11:50:06.520Z,24.98
2018-08-07T11:51:06.520Z,24.93
2018-08-07T11:52:06.505Z,24.90
2018-08-07T11:53:06.516Z,24.87
2018-08-07T11:54:06.503Z,24.87
2018-08-07T11:55:06.499Z,24.85
2018-08-07T11:56:06.494Z,24.85
2018-08-07T11:57:06.488Z,24.80
2018-08-07T11:58:06.485Z,24.93
2018-08-07T11:59:06.481Z,24.85
2018-08-07T12:00:06.477Z,24.90
2018-08-07T12:01:06.464Z,24.93
2018-08-07T12:02:06.466Z,24.98
2018-08-07T12:03:06.461Z,24.98
2018-08-07T12:04:06.457Z,25.06
2018-08-07T12:05:06.447Z,24.98
2018-08-07T12:06:06.440Z,24.96
2018-08-07T12:07:06.440Z,25.05
2018-08-07T12:08:06.483Z,25.10
2018-08-07T12:09:06.427Z,25.10
2018-08-07T12:10:06.422Z,25.03
2018-08-07T12:11:06.421Z,25.06
2018-08-07T12:12:06.405Z,25.03
2018-08-07T12:13:06.405Z,24.95
2018-08-07T12:14:06.407Z,24.98
2018-08-07T12:15:06.397Z,25.08
2018-08-07T12:16:06.433Z,25.02
2018-08-07T12:17:06.386Z,25.08
2018-08-07T12:18:06.385Z,25.13
2018-08-07T12:19:06.382Z,25.08
2018-08-07T12:20:06.367Z,25.15
2018-08-07T12:21:06.363Z,25.17
2018-08-07T12:22:06.359Z,25.06
2018-08-07T12:23:06.352Z,25.06
2018-08-07T12:24:06.354Z,25.09
2018-08-07T12:25:06.349Z,25.09
2018-08-07T12:26:06.344Z,25.10
2018-08-07T12:27:06.336Z,25.23
2018-08-07T12:28:06.330Z,25.20
2018-08-07T12:29:06.326Z,25.25
2018-08-07T12:30:06.318Z,25.21
2018-08-07T12:31:06.318Z,25.30
2018-08-07T12:32:06.309Z,25.28
2018-08-07T12:33:06.301Z,25.43
2018-08-07T12:34:06.295Z,25.42
2018-08-07T12:35:06.314Z,25.47
2018-08-07T12:36:06.287Z,25.55
2018-08-07T12:37:06.285Z,25.55
2018-08-07T12:38:06.279Z,25.58
2018-08-07T12:39:06.274Z,25.70
2018-08-07T12:40:06.268Z,25.69
2018-08-07T12:41:06.302Z,25.69
2018-08-07T12:42:06.256Z,25.73
2018-08-07T12:43:06.259Z,25.75
2018-08-07T12:44:06.252Z,25.77
2018-08-07T12:45:06.244Z,25.76
2018-08-07T12:46:06.240Z,25.77
2018-08-07T12:47:06.238Z,25.83
2018-08-07T12:48:06.231Z,25.79
2018-08-07T12:49:06.227Z,25.79
2018-08-07T12:50:06.221Z,25.79
2018-08-07T12:51:06.219Z,25.87
2018-08-07T12:52:06.208Z,25.85